Time;durP1;ratioP1;P1;durP2;ratioP2;P2;SDS_P1;SDS_P2;PMS_P1;PMS_P2;Temp;Humidity;BMP_temperature;BMP_pressure;BME280_temperature;BME280_humidity;BME280_pressure;Samples;Min_cycle;Max_cycle;Signal;HPM_P1;HPM_P2
2023/03/14 00:01:29;;;;;;;1.30;1.20;;;12.20;99.90;;;;;;5034973;28;20186;-65
2023/03/14 00:03:55;;;;;;;3.43;1.70;;;12.20;99.90;;;;;;5034362;28;20505;-65
2023/03/14 00:06:21;;;;;;;2.13;1.07;;;12.10;99.90;;;;;;5038066;28;20202;-64
2023/03/14 00:08:47;;;;;;;1.23;1.10;;;12.10;99.90;;;;;;5037212;28;20728;-65
2023/03/14 00:11:18;;;;;;;1.27;1.17;;;12.10;99.90;;;;;;5035013;28;20406;-63
2023/03/14 00:13:50;;;;;;;1.00;0.90;;;12.10;99.90;;;;;;5028636;28;20414;-65
2023/03/14 00:16:16;;;;;;;1.23;1.13;;;12.00;99.90;;;;;;5034386;28;20876;-64
2023/03/14 00:18:42;;;;;;;1.23;1.13;;;12.00;99.90;;;;;;5034485;28;21188;-64
2023/03/14 00:21:10;;;;;;;1.40;1.30;;;12.00;99.90;;;;;;5037768;28;20410;-63
2023/03/14 00:23:38;;;;;;;1.80;1.00;;;11.90;99.90;;;;;;5034724;28;20241;-65
2023/03/14 00:26:10;;;;;;;1.20;0.93;;;11.90;99.90;;;;;;5036822;28;20422;-63
2023/03/14 00:28:36;;;;;;;1.10;0.90;;;11.90;99.90;;;;;;5039144;28;20402;-64
2023/03/14 00:31:03;;;;;;;1.20;1.00;;;11.80;99.90;;;;;;5036095;28;20830;-64
2023/03/14 00:33:29;;;;;;;3.67;1.37;;;11.70;99.90;;;;;;5034141;28;20416;-66
2023/03/14 00:36:01;;;;;;;2.10;1.57;;;11.70;99.90;;;;;;5034023;28;20956;-64
2023/03/14 00:38:27;;;;;;;1.30;1.00;;;11.70;99.90;;;;;;5034166;28;20622;-66
2023/03/14 00:40:53;;;;;;;3.30;1.80;;;11.70;99.90;;;;;;5045788;28;20437;-66
2023/03/14 00:43:23;;;;;;;1.40;1.30;;;11.70;99.90;;;;;;5038932;28;20186;-64
2023/03/14 00:45:52;;;;;;;1.23;1.13;;;11.70;99.90;;;;;;5033848;28;20441;-65
2023/03/14 00:48:19;;;;;;;3.90;1.17;;;11.60;99.90;;;;;;5035207;28;20424;-67
2023/03/14 00:50:45;;;;;;;1.10;1.00;;;11.60;99.90;;;;;;5037994;28;20474;-65
2023/03/14 00:53:11;;;;;;;1.40;1.00;;;11.60;99.90;;;;;;5034689;28;20482;-65
2023/03/14 00:55:38;;;;;;;2.60;1.30;;;11.60;99.90;;;;;;5037010;28;20433;-64
2023/03/14 00:58:04;;;;;;;1.57;0.87;;;11.50;99.90;;;;;;5041293;28;20471;-65
2023/03/14 01:00:29;;;;;;;1.87;1.10;;;11.50;99.90;;;;;;5017135;28;21002;-65
2023/03/14 01:02:55;;;;;;;2.07;0.90;;;11.50;99.90;;;;;;5034560;28;20211;-65
2023/03/14 01:05:22;;;;;;;1.80;1.07;;;11.50;99.90;;;;;;5035942;28;20661;-65
2023/03/14 01:07:48;;;;;;;1.60;1.20;;;11.50;99.90;;;;;;5033551;28;20581;-66
2023/03/14 01:10:14;;;;;;;1.13;1.03;;;11.40;99.90;;;;;;5038416;28;20603;-65
2023/03/14 01:12:39;;;;;;;4.80;1.20;;;11.40;99.90;;;;;;5041006;28;20686;-65
2023/03/14 01:15:05;;;;;;;1.40;1.30;;;11.40;99.90;;;;;;5038290;28;20167;-65
2023/03/14 01:17:31;;;;;;;1.43;1.33;;;11.40;99.90;;;;;;5033839;28;20180;-65
2023/03/14 01:19:56;;;;;;;1.13;1.03;;;11.30;99.90;;;;;;5035541;28;20459;-64
2023/03/14 01:22:22;;;;;;;1.20;0.97;;;11.40;99.90;;;;;;5035334;28;20176;-65
2023/03/14 01:24:48;;;;;;;1.30;1.10;;;11.40;99.90;;;;;;5033176;28;20718;-65
2023/03/14 01:27:13;;;;;;;2.90;1.60;;;11.30;99.90;;;;;;5037306;28;20199;-65
2023/03/14 01:29:39;;;;;;;1.50;1.03;;;11.30;99.90;;;;;;5033117;28;20223;-64
2023/03/14 01:32:05;;;;;;;1.67;1.10;;;11.30;99.90;;;;;;5033520;28;20572;-66
2023/03/14 01:34:30;;;;;;;1.00;0.90;;;11.20;99.90;;;;;;5035184;28;20181;-65
2023/03/14 01:36:56;;;;;;;1.80;1.43;;;11.30;99.90;;;;;;5036583;28;20213;-66
2023/03/14 01:39:21;;;;;;;2.53;1.33;;;11.30;99.90;;;;;;5059847;22;20258;31
2023/03/14 01:41:47;;;;;;;1.50;1.40;;;11.30;99.90;;;;;;5049420;28;20264;-71
2023/03/14 01:44:13;;;;;;;2.77;1.23;;;11.40;99.90;;;;;;5044385;28;20628;-71
2023/03/14 01:46:40;;;;;;;1.13;0.90;;;11.30;99.90;;;;;;5057546;28;20167;-71
2023/03/14 01:49:09;;;;;;;1.13;1.03;;;11.40;99.90;;;;;;5052863;28;20445;-70
2023/03/14 01:51:53;;;;;;;3.33;1.23;;;11.40;99.90;;;;;;5042524;28;20480;-69
2023/03/14 01:54:37;;;;;;;2.00;1.27;;;11.50;99.90;;;;;;5033528;28;20406;-71
2023/03/14 01:57:29;;;;;;;0.97;0.97;;;11.50;99.90;;;;;;5036145;28;20779;-71
2023/03/14 02:00:00;;;;;;;3.10;1.30;;;11.50;99.90;;;;;;5033863;28;20992;-71
2023/03/14 02:02:27;;;;;;;2.97;1.40;;;11.50;99.90;;;;;;5039971;28;20406;-71
2023/03/14 02:04:55;;;;;;;1.23;1.13;;;11.50;99.90;;;;;;5044240;28;20424;-71
2023/03/14 02:07:48;;;;;;;1.13;1.03;;;11.40;99.90;;;;;;5041452;28;20418;-71
2023/03/14 02:10:15;;;;;;;2.63;1.00;;;11.40;99.90;;;;;;5035223;28;20490;-72
2023/03/14 02:12:41;;;;;;;1.27;1.17;;;11.40;99.90;;;;;;5039153;28;20560;-72
2023/03/14 02:15:07;;;;;;;1.10;0.83;;;11.40;99.90;;;;;;5043548;28;20492;-70
2023/03/14 02:17:35;;;;;;;1.87;1.50;;;11.40;99.90;;;;;;5040192;28;20250;-70
2023/03/14 02:20:09;;;;;;;1.33;1.20;;;11.30;99.90;;;;;;5038296;28;20803;-70
2023/03/14 02:22:37;;;;;;;1.47;1.30;;;11.30;99.90;;;;;;5032411;28;20878;-70
2023/03/14 02:25:27;;;;;;;1.43;1.17;;;11.30;99.90;;;;;;5031925;28;20481;-71
2023/03/14 02:27:53;;;;;;;5.70;1.23;;;11.30;99.90;;;;;;5033044;28;20417;-70
2023/03/14 02:30:30;;;;;;;1.27;1.17;;;11.30;99.90;;;;;;5038595;28;20804;-70
2023/03/14 02:33:16;;;;;;;1.30;1.20;;;11.30;99.90;;;;;;5039764;28;20411;-70
2023/03/14 02:35:53;;;;;;;1.20;1.10;;;11.40;99.90;;;;;;5036404;28;20883;-70
2023/03/14 02:38:35;;;;;;;7.77;1.17;;;11.40;99.90;;;;;;5038160;28;20448;-70
2023/03/14 02:41:01;;;;;;;1.30;1.03;;;11.40;99.90;;;;;;5033381;28;20798;-71
2023/03/14 02:43:27;;;;;;;2.87;1.10;;;11.40;99.90;;;;;;5038330;28;20822;-71
2023/03/14 02:45:53;;;;;;;1.20;1.10;;;11.50;99.90;;;;;;5032307;28;20416;-70
2023/03/14 02:48:26;;;;;;;1.63;1.00;;;11.50;99.90;;;;;;5036961;28;20179;-70
2023/03/14 02:50:56;;;;;;;1.70;0.97;;;11.50;99.90;;;;;;5037577;28;20857;-69
2023/03/14 02:53:29;;;;;;;2.37;1.07;;;11.40;99.90;;;;;;5042136;28;20551;-69
2023/03/14 02:55:55;;;;;;;1.60;1.30;;;11.40;99.90;;;;;;5037089;28;20414;-72
2023/03/14 02:58:21;;;;;;;1.13;1.00;;;11.40;99.90;;;;;;5034061;28;20556;-70
2023/03/14 03:00:47;;;;;;;2.03;1.10;;;11.30;99.90;;;;;;5042844;28;20926;-70
2023/03/14 03:03:13;;;;;;;3.80;1.37;;;11.30;99.90;;;;;;5042778;28;20451;-69
2023/03/14 03:05:38;;;;;;;1.07;0.90;;;11.30;99.90;;;;;;5032921;28;20923;-70
2023/03/14 03:08:05;;;;;;;1.07;0.90;;;11.20;99.90;;;;;;5043012;28;20406;-69
2023/03/14 03:10:31;;;;;;;1.33;1.10;;;11.20;99.90;;;;;;5041461;28;20195;-71
2023/03/14 03:12:57;;;;;;;2.10;1.27;;;11.20;99.90;;;;;;5042935;28;20484;-71
2023/03/14 03:15:23;;;;;;;1.17;1.00;;;11.20;99.90;;;;;;5034451;28;20406;-71
2023/03/14 03:17:49;;;;;;;1.63;1.00;;;11.20;99.90;;;;;;5042546;28;20642;-71
2023/03/14 03:20:15;;;;;;;1.10;1.00;;;11.20;99.90;;;;;;5041986;28;20436;-71
2023/03/14 03:22:41;;;;;;;2.20;1.13;;;11.10;99.90;;;;;;5035106;28;20171;-70
2023/03/14 03:25:07;;;;;;;0.80;0.80;;;11.10;99.90;;;;;;5042544;28;20827;-69
2023/03/14 03:27:35;;;;;;;2.03;1.23;;;11.10;99.90;;;;;;5041150;28;20186;-70
2023/03/14 03:30:01;;;;;;;1.30;1.00;;;11.10;99.90;;;;;;5042373;28;20526;-69
2023/03/14 03:32:27;;;;;;;1.00;0.90;;;11.10;99.90;;;;;;5034226;28;20414;-70
2023/03/14 03:34:52;;;;;;;1.10;1.00;;;11.10;99.90;;;;;;5042488;28;20240;-71
2023/03/14 03:37:18;;;;;;;1.57;1.13;;;11.10;99.90;;;;;;5041401;28;21042;-70
2023/03/14 03:39:44;;;;;;;1.40;1.30;;;11.10;99.90;;;;;;5041055;28;20211;-70
2023/03/14 03:42:10;;;;;;;3.63;1.00;;;11.00;99.90;;;;;;5042283;28;20620;-70
2023/03/14 03:44:36;;;;;;;0.80;0.70;;;11.00;99.90;;;;;;5040775;28;20184;-70
2023/03/14 03:47:02;;;;;;;1.07;0.97;;;11.00;99.90;;;;;;5042298;28;20424;-70
2023/03/14 03:49:32;;;;;;;1.00;0.87;;;11.00;99.90;;;;;;5039792;28;20463;-70
2023/03/14 03:51:58;;;;;;;1.20;1.10;;;11.00;99.90;;;;;;5038967;28;20406;-70
2023/03/14 03:54:24;;;;;;;1.23;1.00;;;11.00;99.90;;;;;;5045751;28;20409;-70
2023/03/14 03:56:51;;;;;;;1.37;1.10;;;11.00;99.90;;;;;;5038673;28;20429;-71
2023/03/14 03:59:16;;;;;;;1.30;1.20;;;11.00;99.90;;;;;;5046771;28;20456;-71
2023/03/14 04:01:42;;;;;;;1.10;0.83;;;11.00;99.90;;;;;;5039069;28;20528;-71
2023/03/14 04:04:08;;;;;;;1.93;1.20;;;11.00;99.90;;;;;;5039375;28;20425;-69
2023/03/14 04:06:34;;;;;;;1.13;0.90;;;11.00;99.90;;;;;;5045215;28;20198;-71
2023/03/14 04:08:59;;;;;;;0.93;0.80;;;11.00;99.90;;;;;;5039167;28;20179;-70
2023/03/14 04:11:25;;;;;;;0.80;0.80;;;11.00;99.90;;;;;;5045771;28;20249;-71
2023/03/14 04:13:51;;;;;;;0.87;0.87;;;10.90;99.90;;;;;;5039265;28;20183;-71
2023/03/14 04:16:19;;;;;;;1.57;1.10;;;10.90;99.90;;;;;;5046585;28;20170;-71
2023/03/14 04:18:45;;;;;;;1.07;0.97;;;10.90;99.90;;;;;;5038921;28;20205;-72
2023/03/14 04:21:11;;;;;;;1.00;0.90;;;10.90;99.90;;;;;;5039433;28;20521;-70
2023/03/14 04:23:36;;;;;;;0.80;0.80;;;10.90;99.90;;;;;;5045222;28;20171;-71
2023/03/14 04:26:02;;;;;;;1.77;1.00;;;10.90;99.90;;;;;;5034169;28;20207;-69
2023/03/14 04:28:28;;;;;;;2.60;1.27;;;10.90;99.90;;;;;;5045664;28;20682;-70
2023/03/14 04:30:54;;;;;;;0.90;0.90;;;10.80;99.90;;;;;;5038645;28;20278;-70
2023/03/14 04:33:19;;;;;;;0.80;0.77;;;10.80;99.90;;;;;;5046311;28;20413;-70
2023/03/14 04:35:46;;;;;;;1.00;1.00;;;10.80;99.90;;;;;;5038702;28;20172;-70
2023/03/14 04:38:12;;;;;;;4.43;1.10;;;10.80;99.90;;;;;;5030748;28;20198;-70
2023/03/14 04:40:39;;;;;;;1.10;1.00;;;10.80;99.90;;;;;;5028044;28;20445;-70
2023/03/14 04:43:04;;;;;;;1.77;1.60;;;10.80;99.90;;;;;;5031525;28;20497;-70
2023/03/14 04:45:30;;;;;;;1.07;0.97;;;10.80;99.90;;;;;;5021885;28;20421;-70
2023/03/14 04:47:56;;;;;;;1.53;1.00;;;10.80;99.90;;;;;;5031888;28;20180;-70
2023/03/14 04:50:21;;;;;;;0.80;0.73;;;10.80;99.90;;;;;;5039931;28;20206;-72
2023/03/14 04:52:47;;;;;;;1.03;0.93;;;10.70;99.90;;;;;;5042625;28;20171;-69
2023/03/14 04:55:12;;;;;;;0.80;0.80;;;10.70;99.90;;;;;;5044001;28;20255;-70
2023/03/14 04:57:38;;;;;;;2.27;0.90;;;10.80;99.90;;;;;;5046108;28;20252;-71
2023/03/14 05:00:07;;;;;;;1.07;0.97;;;10.70;99.90;;;;;;5047131;28;20283;-72
2023/03/14 05:02:34;;;;;;;1.13;1.03;;;10.70;99.90;;;;;;5045206;28;20171;-70
2023/03/14 05:05:00;;;;;;;1.00;0.80;;;10.70;99.90;;;;;;5044926;28;20424;-71
2023/03/14 05:07:25;;;;;;;1.57;1.10;;;10.70;99.90;;;;;;5042119;28;20410;-70
2023/03/14 05:09:53;;;;;;;1.17;1.07;;;10.70;99.90;;;;;;5041167;28;20285;-72
2023/03/14 05:12:19;;;;;;;1.67;0.90;;;10.80;99.90;;;;;;5043970;28;20179;-73
2023/03/14 05:14:45;;;;;;;0.90;0.90;;;10.80;99.90;;;;;;5045267;28;20409;-71
2023/03/14 05:17:13;;;;;;;1.40;1.30;;;10.80;99.90;;;;;;5044519;28;20398;-70
2023/03/14 05:19:38;;;;;;;1.00;0.90;;;10.80;99.90;;;;;;5031797;28;20625;-73
2023/03/14 05:22:04;;;;;;;1.20;1.10;;;10.80;99.90;;;;;;5043590;28;20417;-70
2023/03/14 05:24:29;;;;;;;1.80;1.00;;;10.80;99.90;;;;;;5044021;28;20179;-71
2023/03/14 05:26:55;;;;;;;1.87;1.40;;;10.70;99.90;;;;;;5044895;28;20179;-72
2023/03/14 05:29:21;;;;;;;1.30;1.03;;;10.80;99.90;;;;;;5043032;28;20676;-70
2023/03/14 05:31:46;;;;;;;1.10;1.00;;;10.70;99.90;;;;;;5026859;28;20225;-70
2023/03/14 05:34:12;;;;;;;3.33;1.20;;;10.80;99.90;;;;;;5043902;28;20175;-72
2023/03/14 05:36:38;;;;;;;2.97;1.80;;;10.80;99.90;;;;;;5044767;28;20163;-71
2023/03/14 05:39:04;;;;;;;1.33;0.97;;;10.80;99.90;;;;;;5043401;28;20175;-71
2023/03/14 05:41:29;;;;;;;1.20;1.00;;;10.80;99.90;;;;;;5044125;28;20449;-71
2023/03/14 05:43:55;;;;;;;1.17;1.07;;;10.80;99.90;;;;;;5045494;28;20170;-73
2023/03/14 05:46:20;;;;;;;1.87;1.77;;;10.80;99.90;;;;;;5043555;28;20221;-70
2023/03/14 05:48:46;;;;;;;1.50;1.33;;;10.80;99.90;;;;;;5044963;28;20209;-71
2023/03/14 05:51:12;;;;;;;2.03;1.33;;;10.80;99.90;;;;;;5036580;28;20295;-71
2023/03/14 05:53:37;;;;;;;1.20;1.10;;;10.80;99.90;;;;;;5037363;28;20167;-71
2023/03/14 05:56:03;;;;;;;1.20;1.10;;;10.80;99.90;;;;;;5044756;28;20179;-70
2023/03/14 05:58:29;;;;;;;1.50;1.40;;;10.80;99.90;;;;;;5041553;28;20171;-70
2023/03/14 06:00:54;;;;;;;1.50;1.33;;;10.80;99.90;;;;;;5043915;28;20197;-71
2023/03/14 06:03:20;;;;;;;2.10;1.90;;;10.90;99.90;;;;;;5043389;28;20166;-70
2023/03/14 06:05:46;;;;;;;0.87;0.87;;;10.90;99.90;;;;;;5038734;28;20174;-71
2023/03/14 06:08:11;;;;;;;1.30;1.20;;;10.90;99.90;;;;;;5044479;28;20179;-70
2023/03/14 06:10:37;;;;;;;1.30;1.07;;;10.90;99.90;;;;;;5042815;28;20202;-71
2023/03/14 06:13:03;;;;;;;1.67;1.57;;;11.00;99.90;;;;;;5044431;28;20167;-71
2023/03/14 06:15:28;;;;;;;1.60;1.10;;;11.00;99.90;;;;;;5043515;28;20168;-71
2023/03/14 06:17:55;;;;;;;1.57;0.90;;;11.00;99.90;;;;;;5029587;28;20174;-70
2023/03/14 06:20:20;;;;;;;1.00;0.93;;;11.00;99.90;;;;;;5042899;28;20195;-70
2023/03/14 06:22:46;;;;;;;1.47;1.37;;;11.00;99.90;;;;;;5043169;28;20547;-70
2023/03/14 06:25:12;;;;;;;2.63;1.13;;;11.10;99.90;;;;;;5044095;28;20641;-71
2023/03/14 06:27:37;;;;;;;0.93;0.83;;;11.10;99.90;;;;;;5042604;28;20660;-71
2023/03/14 06:30:03;;;;;;;4.10;1.47;;;11.10;99.90;;;;;;5043958;28;20680;-71
2023/03/14 06:32:29;;;;;;;2.03;1.53;;;11.20;99.90;;;;;;5035844;28;20172;-71
2023/03/14 06:34:56;;;;;;;2.03;1.60;;;11.20;99.90;;;;;;5044406;28;20497;-72
2023/03/14 06:37:22;;;;;;;1.40;1.17;;;11.20;99.90;;;;;;5042966;28;20166;-70
2023/03/14 06:39:48;;;;;;;2.20;1.80;;;11.20;99.90;;;;;;5043525;28;21001;-70
2023/03/14 06:42:13;;;;;;;3.00;1.20;;;11.30;99.90;;;;;;5044067;28;20688;-71
2023/03/14 06:44:39;;;;;;;3.03;1.90;;;11.40;99.90;;;;;;5042767;28;20182;-71
2023/03/14 06:47:05;;;;;;;3.07;1.10;;;11.40;99.90;;;;;;5043548;28;20229;-71
2023/03/14 06:49:30;;;;;;;1.73;1.10;;;11.50;99.90;;;;;;5041160;28;20645;-70
2023/03/14 06:51:56;;;;;;;1.90;1.20;;;11.50;99.90;;;;;;5040330;28;20172;-71
2023/03/14 06:54:21;;;;;;;1.30;1.20;;;11.50;99.90;;;;;;5047245;28;20595;-71
2023/03/14 06:56:47;;;;;;;2.40;1.40;;;11.60;99.90;;;;;;5040094;28;20283;-71
2023/03/14 06:59:13;;;;;;;3.50;1.20;;;11.70;99.90;;;;;;5047864;28;20641;-70
2023/03/14 07:01:38;;;;;;;3.03;0.97;;;11.90;99.90;;;;;;5040165;28;20215;-70
2023/03/14 07:04:04;;;;;;;1.53;0.90;;;12.00;99.90;;;;;;5040279;28;20180;-72
2023/03/14 07:06:29;;;;;;;1.30;1.00;;;12.10;99.90;;;;;;5045957;28;20544;-70
2023/03/14 07:08:56;;;;;;;1.53;1.30;;;12.20;99.90;;;;;;5040223;28;20549;-71
2023/03/14 07:11:22;;;;;;;2.20;1.30;;;12.30;99.90;;;;;;5047090;28;20614;-71
2023/03/14 07:13:47;;;;;;;2.10;1.33;;;12.40;99.90;;;;;;5040115;28;20417;-71
2023/03/14 07:16:13;;;;;;;1.53;1.37;;;12.50;99.90;;;;;;5032984;28;20413;-70
2023/03/14 07:18:39;;;;;;;4.00;1.33;;;12.40;99.90;;;;;;5039985;28;20167;-70
2023/03/14 07:21:09;;;;;;;1.90;1.20;;;12.30;99.90;;;;;;5040221;28;20434;-71
2023/03/14 07:23:35;;;;;;;3.73;1.30;;;12.30;99.90;;;;;;5046145;28;20916;-71
2023/03/14 07:26:01;;;;;;;3.90;1.60;;;12.20;99.90;;;;;;5039916;28;20410;-71
2023/03/14 07:28:29;;;;;;;5.60;1.93;;;12.20;99.90;;;;;;5046845;28;20780;-70
2023/03/14 07:30:55;;;;;;;4.23;1.23;;;12.30;99.90;;;;;;5039559;28;20541;-70
2023/03/14 07:33:21;;;;;;;2.40;1.50;;;12.30;99.90;;;;;;5047526;28;20414;-71
2023/03/14 07:35:48;;;;;;;1.33;1.10;;;12.40;99.90;;;;;;5039520;28;20780;-70
2023/03/14 07:38:14;;;;;;;2.57;0.90;;;12.60;99.90;;;;;;5039982;28;20168;-69
2023/03/14 07:40:39;;;;;;;2.20;0.90;;;12.60;99.90;;;;;;5045148;28;20537;-70
2023/03/14 07:43:05;;;;;;;2.60;1.20;;;12.50;99.90;;;;;;5040290;28;20497;-71
2023/03/14 07:45:31;;;;;;;2.20;1.40;;;12.50;99.90;;;;;;5046569;28;20183;-72
2023/03/14 07:47:57;;;;;;;3.00;1.13;;;12.60;99.90;;;;;;5040077;28;20185;-70
2023/03/14 07:50:24;;;;;;;2.53;1.17;;;12.70;99.90;;;;;;5041016;28;20211;-70
2023/03/14 07:52:50;;;;;;;1.27;1.17;;;12.70;99.90;;;;;;5043379;28;20445;-71
2023/03/14 07:55:15;;;;;;;2.10;1.40;;;12.60;99.90;;;;;;5026124;28;20453;-71
2023/03/14 07:57:41;;;;;;;3.10;1.47;;;12.80;99.90;;;;;;5043361;28;20229;-72
2023/03/14 08:00:08;;;;;;;1.60;1.30;;;12.80;99.90;;;;;;5043184;28;20199;-71
2023/03/14 08:02:33;;;;;;;3.97;2.10;;;13.00;99.90;;;;;;5042051;28;20743;-71
2023/03/14 08:04:59;;;;;;;4.43;2.50;;;13.30;99.90;;;;;;5036356;28;20499;-70
2023/03/14 08:07:24;;;;;;;7.30;3.73;;;13.80;99.90;;;;;;5036845;28;20696;-69
2023/03/14 08:09:50;;;;;;;4.87;3.97;;;13.80;99.90;;;;;;5043562;28;20241;-69
2023/03/14 08:12:16;;;;;;;4.90;3.30;;;13.70;99.90;;;;;;5041953;28;20238;-71
2023/03/14 08:14:41;;;;;;;7.60;3.77;;;13.50;99.90;;;;;;5037985;28;20198;-67
2023/03/14 08:17:08;;;;;;;2.70;1.73;;;13.40;99.90;;;;;;5031174;28;20551;-70
2023/03/14 08:19:34;;;;;;;4.70;1.47;;;13.30;99.90;;;;;;5041782;28;20234;-71
2023/03/14 08:22:00;;;;;;;5.27;2.10;;;13.30;99.90;;;;;;5032697;28;20427;-72
2023/03/14 08:24:25;;;;;;;4.07;1.50;;;13.50;99.90;;;;;;5043143;28;20629;-71
2023/03/14 08:26:51;;;;;;;5.43;1.57;;;13.50;99.90;;;;;;5045278;28;20195;-70
2023/03/14 08:29:17;;;;;;;1.27;1.10;;;13.40;99.90;;;;;;5039550;28;20699;-71
2023/03/14 08:31:42;;;;;;;2.07;1.60;;;13.30;99.90;;;;;;5044074;28;20286;-71
2023/03/14 08:34:08;;;;;;;1.87;1.60;;;13.20;99.90;;;;;;5044927;28;20260;-72
2023/03/14 08:36:34;;;;;;;3.77;1.37;;;13.20;99.90;;;;;;5047139;28;20240;-70
2023/03/14 08:38:59;;;;;;;1.57;1.27;;;13.10;99.90;;;;;;5044356;28;20551;-70
2023/03/14 08:41:25;;;;;;;5.83;1.50;;;13.10;99.90;;;;;;5048629;28;20287;-70
2023/03/14 08:43:51;;;;;;;2.63;1.50;;;13.00;99.90;;;;;;5042073;28;20225;-70
2023/03/14 08:46:16;;;;;;;4.67;1.27;;;13.00;99.90;;;;;;5042888;28;20186;-70
2023/03/14 08:48:42;;;;;;;2.90;1.27;;;13.00;99.90;;;;;;5045981;28;20253;-70
2023/03/14 08:51:10;;;;;;;3.33;1.20;;;12.90;99.90;;;;;;5046006;28;20206;-70
2023/03/14 08:53:36;;;;;;;3.83;1.83;;;12.90;99.90;;;;;;5037661;28;20172;-70
2023/03/14 08:56:03;;;;;;;3.27;1.43;;;12.90;99.90;;;;;;5032123;28;20471;-69
2023/03/14 08:58:29;;;;;;;4.13;1.73;;;12.80;99.90;;;;;;5043548;28;20464;-71
2023/03/14 09:00:55;;;;;;;1.40;1.20;;;12.80;99.90;;;;;;5045673;28;20849;-70
2023/03/14 09:03:22;;;;;;;5.27;1.40;;;12.90;99.90;;;;;;5044354;28;20195;-71
2023/03/14 09:05:48;;;;;;;2.73;1.00;;;12.80;99.90;;;;;;5044986;28;20175;-70
2023/03/14 09:08:14;;;;;;;2.50;1.10;;;12.80;99.90;;;;;;5037324;28;20468;-70
2023/03/14 09:10:40;;;;;;;2.23;1.53;;;12.80;99.90;;;;;;5045217;28;20473;-71
2023/03/14 09:13:05;;;;;;;2.90;0.83;;;12.90;99.90;;;;;;5046795;28;20178;-70
2023/03/14 09:15:31;;;;;;;5.87;1.77;;;13.10;99.90;;;;;;5043264;28;20822;-71
2023/03/14 09:17:57;;;;;;;1.70;1.20;;;13.30;99.90;;;;;;5039108;28;20182;-70
2023/03/14 09:20:23;;;;;;;2.60;1.00;;;13.50;99.90;;;;;;5044519;28;20578;-70
2023/03/14 09:22:48;;;;;;;2.27;1.40;;;13.70;99.90;;;;;;5034027;28;20423;-71
2023/03/14 09:25:14;;;;;;;2.27;1.30;;;14.20;99.90;;;;;;5034015;28;20255;-71
2023/03/14 09:27:39;;;;;;;5.33;1.30;;;14.90;99.90;;;;;;5044981;28;20250;-71
2023/03/14 09:30:05;;;;;;;4.20;1.00;;;15.60;99.90;;;;;;5037802;28;20211;-70
2023/03/14 09:32:31;;;;;;;2.80;1.30;;;15.70;99.90;;;;;;5045625;28;20187;-70
2023/03/14 09:34:57;;;;;;;2.43;1.30;;;15.60;99.90;;;;;;5065564;22;20504;-64
2023/03/14 09:37:23;;;;;;;1.97;1.27;;;15.70;99.90;;;;;;5076763;28;20180;-63
2023/03/14 09:39:48;;;;;;;2.23;1.10;;;16.00;99.90;;;;;;5076403;28;20455;-64
2023/03/14 09:42:18;;;;;;;2.23;1.20;;;15.80;99.90;;;;;;5067869;28;20206;-64
2023/03/14 09:45:06;;;;;;;3.20;1.17;;;15.80;99.90;;;;;;5066924;28;20204;-63
2023/03/14 09:47:34;;;;;;;1.93;1.00;;;15.60;99.90;;;;;;5071104;28;20410;-64
2023/03/14 09:50:03;;;;;;;2.37;1.50;;;15.50;99.90;;;;;;5070556;28;20507;-64
2023/03/14 09:52:36;;;;;;;2.10;1.20;;;15.30;99.90;;;;;;5073203;28;20405;-65
2023/03/14 09:55:22;;;;;;;3.70;1.10;;;15.10;99.90;;;;;;5069644;28;20515;-64
2023/03/14 09:58:02;;;;;;;1.20;1.00;;;14.90;99.90;;;;;;5067219;28;20401;-63
2023/03/14 10:00:30;;;;;;;2.13;1.10;;;14.40;99.90;;;;;;5070759;28;20411;-64
2023/03/14 10:03:24;;;;;;;2.00;1.60;;;14.40;99.90;;;;;;5079047;28;20421;-63
2023/03/14 10:05:50;;;;;;;1.63;1.33;;;14.20;99.90;;;;;;5062423;28;20437;-64
2023/03/14 10:08:15;;;;;;;2.13;1.20;;;14.20;99.90;;;;;;5080210;28;20397;-65
2023/03/14 10:10:41;;;;;;;3.70;1.10;;;14.20;99.90;;;;;;5068274;28;20973;-65
2023/03/14 10:13:27;;;;;;;2.73;1.10;;;14.20;99.90;;;;;;5066901;28;20243;-64
2023/03/14 10:15:55;;;;;;;2.80;1.40;;;14.10;99.90;;;;;;5062194;28;20193;-64
2023/03/14 10:18:23;;;;;;;4.37;1.47;;;14.00;99.90;;;;;;5069723;28;20401;-64
2023/03/14 10:21:01;;;;;;;2.90;1.40;;;14.10;99.90;;;;;;5081207;28;20414;-64
2023/03/14 10:23:29;;;;;;;5.17;1.50;;;14.00;99.90;;;;;;5067757;28;20407;-63
2023/03/14 10:26:00;;;;;;;1.73;1.10;;;14.00;99.90;;;;;;5071515;28;20444;-63
2023/03/14 10:28:33;;;;;;;2.43;1.23;;;14.10;99.90;;;;;;5070565;28;20405;-63
2023/03/14 10:30:59;;;;;;;4.80;1.37;;;14.10;99.90;;;;;;5070493;28;20448;-62
2023/03/14 10:33:31;;;;;;;1.03;0.90;;;14.10;99.90;;;;;;5066832;28;20467;-62
2023/03/14 10:36:00;;;;;;;1.73;1.20;;;14.00;99.90;;;;;;5063079;28;20477;-64
2023/03/14 10:38:34;;;;;;;2.40;0.97;;;14.00;99.90;;;;;;5052417;28;20500;-64
2023/03/14 10:41:00;;;;;;;3.03;1.57;;;13.90;99.90;;;;;;5073449;28;20824;-64
2023/03/14 10:43:32;;;;;;;1.77;0.90;;;13.90;99.90;;;;;;5071678;28;20446;-64
2023/03/14 10:46:01;;;;;;;1.57;0.93;;;13.80;99.90;;;;;;5066573;28;20257;-64
2023/03/14 10:48:31;;;;;;;2.10;0.97;;;13.80;99.90;;;;;;5068671;28;20408;-64
2023/03/14 10:51:10;;;;;;;1.87;0.97;;;13.80;99.90;;;;;;5071087;28;20525;-63
2023/03/14 10:53:44;;;;;;;2.40;1.20;;;13.80;99.90;;;;;;5068844;28;20405;-64
2023/03/14 10:56:18;;;;;;;1.90;1.07;;;13.80;99.90;;;;;;5075511;28;20424;-65
2023/03/14 10:58:46;;;;;;;3.73;1.60;;;13.80;99.90;;;;;;5065904;28;20455;-65
2023/03/14 11:01:36;;;;;;;1.27;1.00;;;13.70;99.90;;;;;;5071399;28;20423;-64
2023/03/14 11:04:32;;;;;;;2.13;0.90;;;13.70;99.90;;;;;;5068561;28;20496;-64
2023/03/14 11:07:22;;;;;;;1.73;1.10;;;13.90;99.90;;;;;;5066420;28;20816;-64
2023/03/14 11:10:30;;;;;;;1.10;1.00;;;13.80;99.90;;;;;;5064599;28;20450;-63
2023/03/14 11:13:08;;;;;;;2.10;0.90;;;13.80;99.90;;;;;;5025189;28;20914;-64
2023/03/14 11:15:46;;;;;;;6.00;1.20;;;13.80;99.90;;;;;;5069509;28;20515;-62
2023/03/14 11:18:36;;;;;;;1.27;0.80;;;13.80;99.90;;;;;;5075159;28;20458;-62
2023/03/14 11:21:09;;;;;;;2.50;0.90;;;13.70;99.90;;;;;;5066751;28;20474;-63
2023/03/14 11:23:56;;;;;;;1.20;0.87;;;13.70;99.90;;;;;;5079714;28;20746;-64
2023/03/14 11:26:44;;;;;;;0.97;0.87;;;13.70;99.90;;;;;;5066017;28;20427;-64
2023/03/14 11:29:34;;;;;;;3.70;1.23;;;13.70;99.90;;;;;;5077018;28;20441;-63
2023/03/14 11:32:04;;;;;;;1.17;0.90;;;13.80;99.90;;;;;;5066431;28;20408;-64
2023/03/14 11:34:49;;;;;;;3.03;1.00;;;13.80;99.90;;;;;;5075013;28;20409;-64
2023/03/14 11:37:27;;;;;;;1.00;0.90;;;13.80;99.90;;;;;;5067847;28;20446;-64
2023/03/14 11:40:16;;;;;;;1.93;1.00;;;13.80;99.90;;;;;;5069586;28;20400;-64
2023/03/14 11:42:44;;;;;;;2.60;1.20;;;13.80;99.90;;;;;;5063927;28;20458;-63
2023/03/14 11:45:22;;;;;;;1.27;1.17;;;13.80;99.90;;;;;;5065677;28;20525;-63
2023/03/14 11:48:07;;;;;;;1.10;0.77;;;13.80;99.90;;;;;;5064157;28;20890;-64
2023/03/14 11:50:35;;;;;;;1.03;0.90;;;13.90;99.90;;;;;;5080594;28;20460;-64
2023/03/14 11:53:13;;;;;;;1.10;0.90;;;14.00;99.90;;;;;;5067304;28;20721;-64
2023/03/14 11:55:41;;;;;;;1.93;1.13;;;14.00;99.90;;;;;;5077108;28;20447;-64
2023/03/14 11:58:19;;;;;;;1.57;1.27;;;14.10;99.90;;;;;;5066744;28;20401;-64
2023/03/14 12:00:48;;;;;;;2.60;1.10;;;14.00;99.90;;;;;;5070375;28;20496;-63
2023/03/14 12:03:30;;;;;;;2.80;1.13;;;14.00;99.90;;;;;;5068640;28;20419;-64
2023/03/14 12:06:16;;;;;;;3.63;1.67;;;14.00;99.90;;;;;;5079852;28;20830;-65
2023/03/14 12:08:50;;;;;;;1.37;0.80;;;14.10;99.90;;;;;;5067929;28;20911;-64
2023/03/14 12:11:33;;;;;;;1.00;0.90;;;14.10;99.90;;;;;;5081075;28;20451;-65
2023/03/14 12:13:59;;;;;;;1.60;1.10;;;14.00;99.90;;;;;;5070340;28;20406;-64
2023/03/14 12:16:25;;;;;;;2.73;1.00;;;14.10;99.90;;;;;;5072564;28;20486;-64
2023/03/14 12:18:52;;;;;;;1.20;0.93;;;14.20;99.90;;;;;;5068992;28;20409;-64
2023/03/14 12:21:19;;;;;;;2.40;1.10;;;14.30;99.90;;;;;;5074260;28;20178;-64
2023/03/14 12:23:52;;;;;;;5.80;2.00;;;14.30;99.90;;;;;;5074547;28;20419;-64
2023/03/14 12:26:20;;;;;;;1.40;1.00;;;14.30;99.90;;;;;;5070664;28;20796;-64
2023/03/14 12:28:51;;;;;;;1.77;1.23;;;14.30;99.90;;;;;;5080785;28;20471;-65
2023/03/14 12:31:31;;;;;;;4.30;1.23;;;14.20;99.90;;;;;;5074754;28;20443;-64
2023/03/14 12:34:12;;;;;;;0.83;0.83;;;14.20;99.90;;;;;;5072408;28;20719;-64
2023/03/14 12:36:49;;;;;;;2.23;1.10;;;14.30;99.90;;;;;;5068566;28;20440;-64
2023/03/14 12:39:53;;;;;;;3.93;1.00;;;14.40;99.90;;;;;;5071211;28;20500;-62
2023/03/14 12:42:40;;;;;;;2.37;1.10;;;14.40;99.90;;;;;;5075169;28;20420;-64
2023/03/14 12:45:15;;;;;;;1.40;1.00;;;14.50;99.90;;;;;;5072490;28;20514;-64
2023/03/14 12:47:51;;;;;;;1.10;0.90;;;14.80;99.90;;;;;;5071809;28;20888;-64
2023/03/14 12:50:25;;;;;;;1.60;1.10;;;14.70;99.90;;;;;;5073399;28;20794;-64
2023/03/14 12:53:23;;;;;;;1.27;1.17;;;14.80;99.90;;;;;;5075142;28;20419;-66
2023/03/14 12:56:05;;;;;;;1.23;1.10;;;14.50;99.90;;;;;;5068596;28;20428;-64
2023/03/14 12:58:36;;;;;;;0.67;0.67;;;14.50;99.90;;;;;;5070867;28;20462;-65